createdAt,value
2019-05-25T00:01:51.264Z,6.30
2019-05-25T00:04:18.525Z,7.53
2019-05-25T00:06:45.830Z,7.10
2019-05-25T00:09:13.166Z,7.07
2019-05-25T00:11:40.435Z,6.03
2019-05-25T00:14:07.738Z,7.03
2019-05-25T00:16:35.069Z,6.73
2019-05-25T00:19:02.337Z,7.90
2019-05-25T00:21:29.612Z,5.83
2019-05-25T00:24:11.120Z,6.00
2019-05-25T00:26:25.913Z,7.23
2019-05-25T00:28:53.178Z,6.80
2019-05-25T00:31:20.488Z,7.10
2019-05-25T00:33:47.892Z,6.73
2019-05-25T00:36:15.254Z,7.87
2019-05-25T00:38:42.591Z,10.97
2019-05-25T00:41:09.887Z,8.40
2019-05-25T00:43:37.145Z,7.07
2019-05-25T00:46:04.476Z,7.73
2019-05-25T00:48:31.860Z,7.53
2019-05-25T00:50:59.185Z,7.97
2019-05-25T00:53:26.450Z,6.90
2019-05-25T00:55:53.741Z,8.00
2019-05-25T00:58:21.009Z,7.07
2019-05-25T01:00:48.294Z,6.80
2019-05-25T01:03:15.609Z,7.07
2019-05-25T01:05:42.905Z,7.17
2019-05-25T01:08:10.181Z,6.30
2019-05-25T01:10:37.617Z,6.93
2019-05-25T01:13:04.961Z,6.90
2019-05-25T01:15:32.224Z,6.93
2019-05-25T01:17:59.588Z,11.40
2019-05-25T01:20:27.001Z,7.37
2019-05-25T01:22:54.441Z,6.30
2019-05-25T01:25:21.709Z,7.03
2019-05-25T01:27:48.981Z,7.43
2019-05-25T01:30:16.833Z,7.57
2019-05-25T01:32:44.206Z,6.87
2019-05-25T01:35:11.585Z,7.00
2019-05-25T01:37:39.082Z,7.83
2019-05-25T01:40:06.593Z,8.00
2019-05-25T01:42:33.861Z,8.07
2019-05-25T01:45:01.169Z,8.70
2019-05-25T01:47:28.437Z,7.83
2019-05-25T01:49:55.702Z,8.60
2019-05-25T01:52:23.068Z,7.23
2019-05-25T01:54:59.476Z,7.17
2019-05-25T01:57:19.333Z,6.63
2019-05-25T01:59:46.700Z,7.53
2019-05-25T02:02:13.967Z,7.47
2019-05-25T02:04:41.252Z,7.70
2019-05-25T02:07:08.614Z,7.57
2019-05-25T02:09:35.888Z,9.60
2019-05-25T02:12:03.170Z,6.80
2019-05-25T02:14:30.526Z,7.17
2019-05-25T02:16:57.793Z,7.53
2019-05-25T02:19:25.071Z,7.07
2019-05-25T02:21:52.348Z,7.50
2019-05-25T02:24:19.615Z,7.57
2019-05-25T02:26:46.890Z,7.90
2019-05-25T02:29:14.253Z,7.80
2019-05-25T02:31:41.522Z,8.60
2019-05-25T02:34:08.789Z,7.83
2019-05-25T02:36:36.089Z,7.57
2019-05-25T02:39:04.999Z,8.63
2019-05-25T02:41:32.421Z,6.83
2019-05-25T02:43:59.714Z,6.57
2019-05-25T02:46:26.977Z,6.80
2019-05-25T02:48:54.240Z,7.93
2019-05-25T02:51:21.621Z,7.10
2019-05-25T02:53:48.952Z,12.00
2019-05-25T02:56:16.306Z,7.90
2019-05-25T02:58:43.584Z,8.77
2019-05-25T03:01:10.966Z,7.60
2019-05-25T03:03:38.270Z,7.30
2019-05-25T03:06:06.393Z,7.70
2019-05-25T03:08:36.086Z,9.00
2019-05-25T03:11:03.373Z,6.67
2019-05-25T03:13:32.478Z,8.60
2019-05-25T03:16:00.017Z,7.73
2019-05-25T03:18:27.317Z,7.57
2019-05-25T03:20:54.581Z,7.37
2019-05-25T03:23:21.912Z,7.63
2019-05-25T03:25:50.324Z,7.10
2019-05-25T03:28:17.869Z,7.90
2019-05-25T03:30:46.574Z,6.47
2019-05-25T03:33:13.870Z,7.40
2019-05-25T03:35:41.137Z,7.30
2019-05-25T03:38:08.401Z,6.87
2019-05-25T03:40:35.864Z,8.93
2019-05-25T03:43:03.280Z,7.03
2019-05-25T03:45:30.592Z,6.83
2019-05-25T03:47:57.878Z,8.53
2019-05-25T03:50:25.221Z,7.63
2019-05-25T03:52:52.480Z,7.00
2019-05-25T03:55:19.860Z,8.50
2019-05-25T03:57:47.123Z,7.60
2019-05-25T04:00:15.152Z,7.90
2019-05-25T04:02:42.505Z,9.20
2019-05-25T04:05:09.926Z,11.23
2019-05-25T04:07:37.321Z,6.90
2019-05-25T04:10:07.777Z,7.00
2019-05-25T04:12:35.045Z,7.67
2019-05-25T04:15:02.382Z,7.40
2019-05-25T04:17:29.657Z,7.73
2019-05-25T04:19:56.921Z,7.50
2019-05-25T04:22:24.226Z,8.20
2019-05-25T04:24:51.538Z,9.50
2019-05-25T04:27:18.870Z,7.60
2019-05-25T04:29:46.182Z,8.87
2019-05-25T04:32:13.491Z,7.70
2019-05-25T04:34:40.755Z,8.57
2019-05-25T04:37:08.050Z,8.30
2019-05-25T04:39:35.321Z,7.53
2019-05-25T04:42:02.589Z,7.93
2019-05-25T04:44:29.896Z,9.37
2019-05-25T04:46:57.157Z,9.33
2019-05-25T04:49:24.420Z,9.97
2019-05-25T04:51:51.788Z,7.77
2019-05-25T04:54:19.054Z,8.73
2019-05-25T04:56:46.397Z,9.77
2019-05-25T04:59:13.776Z,11.30
2019-05-25T05:01:41.117Z,9.20
2019-05-25T05:04:08.391Z,8.70
2019-05-25T05:06:35.735Z,13.23
2019-05-25T05:09:03.080Z,9.33
2019-05-25T05:11:30.385Z,11.10
2019-05-25T05:13:57.664Z,8.90
2019-05-25T05:16:24.925Z,9.20
2019-05-25T05:18:52.314Z,8.50
2019-05-25T05:21:19.639Z,10.73
2019-05-25T05:23:46.906Z,13.90
2019-05-25T05:26:14.221Z,10.37
2019-05-25T05:28:41.490Z,11.23
2019-05-25T05:31:22.785Z,10.10
2019-05-25T05:33:37.914Z,9.33
2019-05-25T05:36:05.270Z,8.37
2019-05-25T05:38:33.015Z,10.60
2019-05-25T05:41:00.949Z,8.23
2019-05-25T05:43:29.253Z,9.63
2019-05-25T05:45:58.097Z,9.53
2019-05-25T05:48:26.030Z,8.80
2019-05-25T05:50:53.770Z,9.03
2019-05-25T05:53:22.820Z,9.67
2019-05-25T05:55:50.156Z,9.10
2019-05-25T05:58:17.525Z,9.00
2019-05-25T06:00:44.785Z,9.07
2019-05-25T06:03:12.044Z,8.30
2019-05-25T06:05:39.358Z,8.60
2019-05-25T06:08:06.629Z,11.93
2019-05-25T06:10:33.898Z,8.50
2019-05-25T06:13:01.186Z,8.23
2019-05-25T06:15:28.526Z,7.93
2019-05-25T06:17:55.793Z,8.23
2019-05-25T06:20:23.209Z,7.60
2019-05-25T06:22:50.488Z,8.50
2019-05-25T06:25:17.834Z,8.30
2019-05-25T06:27:45.140Z,9.50
2019-05-25T06:30:12.473Z,7.03
2019-05-25T06:32:39.741Z,8.07
2019-05-25T06:35:07.120Z,9.87
2019-05-25T06:37:34.386Z,9.53
2019-05-25T06:40:02.018Z,7.80
2019-05-25T06:42:29.289Z,8.17
2019-05-25T06:44:56.561Z,10.40
2019-05-25T06:47:24.016Z,9.67
2019-05-25T06:49:51.285Z,7.93
2019-05-25T06:52:18.598Z,9.57
2019-05-25T06:54:45.938Z,8.70
2019-05-25T06:57:13.211Z,8.97
2019-05-25T06:59:40.473Z,8.43
2019-05-25T07:02:07.762Z,7.63
2019-05-25T07:04:35.034Z,12.10
2019-05-25T07:07:02.305Z,7.73
2019-05-25T07:09:29.589Z,7.90
2019-05-25T07:11:56.855Z,7.67
2019-05-25T07:14:24.310Z,7.97
2019-05-25T07:16:51.580Z,7.67
2019-05-25T07:19:18.840Z,7.83
2019-05-25T07:21:46.220Z,7.70
2019-05-25T07:24:13.492Z,6.53
2019-05-25T07:26:40.828Z,7.37
2019-05-25T07:29:08.211Z,6.43
2019-05-25T07:31:35.552Z,6.57
2019-05-25T07:34:02.913Z,8.30
2019-05-25T07:36:30.284Z,6.83
2019-05-25T07:38:58.183Z,5.83
2019-05-25T07:41:25.471Z,6.80
2019-05-25T07:43:52.773Z,7.73
2019-05-25T07:46:20.070Z,7.37
2019-05-25T07:48:50.279Z,9.30
2019-05-25T07:51:16.445Z,7.93
2019-05-25T07:53:43.712Z,8.50
2019-05-25T07:56:11.015Z,8.37
2019-05-25T07:58:38.457Z,5.30
2019-05-25T08:01:05.721Z,7.60
2019-05-25T08:03:32.993Z,5.70
2019-05-25T08:06:00.358Z,7.23
2019-05-25T08:08:27.625Z,7.43
2019-05-25T08:10:54.902Z,10.20
2019-05-25T08:13:22.365Z,7.13
2019-05-25T08:15:49.759Z,6.63
2019-05-25T08:18:17.157Z,8.30
2019-05-25T08:20:47.209Z,8.50
2019-05-25T08:23:13.605Z,9.87
2019-05-25T08:25:40.870Z,5.70
2019-05-25T08:28:08.161Z,5.40
2019-05-25T08:30:35.457Z,7.73
2019-05-25T08:33:02.796Z,8.73
2019-05-25T08:35:30.113Z,7.13
2019-05-25T08:37:57.390Z,5.40
2019-05-25T08:40:24.656Z,5.60
2019-05-25T08:42:52.071Z,7.33
2019-05-25T08:45:19.477Z,7.80
2019-05-25T08:47:46.820Z,5.90
2019-05-25T08:50:14.221Z,5.70
2019-05-25T08:52:41.490Z,6.47
2019-05-25T08:55:09.037Z,8.40
2019-05-25T08:57:36.548Z,6.57
2019-05-25T09:00:04.992Z,6.03
2019-05-25T09:02:32.269Z,6.07
2019-05-25T09:04:59.645Z,17.97
2019-05-25T09:07:26.920Z,9.30
2019-05-25T09:09:54.358Z,6.00
2019-05-25T09:12:21.729Z,5.90
2019-05-25T09:14:49.005Z,5.60
2019-05-25T09:17:16.321Z,5.43
2019-05-25T09:19:43.693Z,5.77
2019-05-25T09:22:10.958Z,5.43
2019-05-25T09:24:38.226Z,5.43
2019-05-25T09:27:05.773Z,5.57
2019-05-25T09:29:33.104Z,5.30
2019-05-25T09:32:00.368Z,5.33
2019-05-25T09:34:27.761Z,5.03
2019-05-25T09:36:55.030Z,7.10
2019-05-25T09:39:22.305Z,5.63
2019-05-25T09:41:49.676Z,4.87
2019-05-25T09:44:16.945Z,4.00
2019-05-25T09:46:44.213Z,4.17
2019-05-25T09:49:11.505Z,4.57
2019-05-25T09:51:38.772Z,4.07
2019-05-25T09:54:06.041Z,4.43
2019-05-25T09:56:33.353Z,6.57
2019-05-25T09:59:00.621Z,4.73
2019-05-25T10:01:27.973Z,3.50
2019-05-25T10:03:56.759Z,4.47
2019-05-25T10:06:24.256Z,5.40
2019-05-25T10:08:51.531Z,4.20
2019-05-25T10:11:18.908Z,4.00
2019-05-25T10:13:46.173Z,5.50
2019-05-25T10:16:13.432Z,3.53
2019-05-25T10:18:40.830Z,3.37
2019-05-25T10:21:08.093Z,3.63
2019-05-25T10:23:35.388Z,5.23
2019-05-25T10:26:02.681Z,4.30
2019-05-25T10:28:29.949Z,3.70
2019-05-25T10:30:57.217Z,4.13
2019-05-25T10:33:24.512Z,3.70
2019-05-25T10:35:51.813Z,4.23
2019-05-25T10:38:19.241Z,3.43
2019-05-25T10:40:46.610Z,4.33
2019-05-25T10:43:13.882Z,7.13
2019-05-25T10:45:41.217Z,3.50
2019-05-25T10:48:08.533Z,3.23
2019-05-25T10:50:35.809Z,4.87
2019-05-25T10:53:03.088Z,3.40
2019-05-25T10:55:30.458Z,3.40
2019-05-25T10:57:57.741Z,3.30
2019-05-25T11:00:25.594Z,4.03
2019-05-25T11:02:52.906Z,3.83
2019-05-25T11:05:20.240Z,3.60
2019-05-25T11:07:47.510Z,4.00
2019-05-25T11:10:15.051Z,3.90
2019-05-25T11:12:42.317Z,4.20
2019-05-25T11:15:10.059Z,3.93
2019-05-25T11:17:37.621Z,4.40
2019-05-25T11:20:05.953Z,3.53
2019-05-25T11:22:33.221Z,3.93
2019-05-25T11:25:00.533Z,4.33
2019-05-25T11:27:27.968Z,4.03
2019-05-25T11:30:08.069Z,3.83
2019-05-25T11:32:24.332Z,3.83
2019-05-25T11:34:51.602Z,3.57
2019-05-25T11:37:18.879Z,6.40
2019-05-25T11:39:46.252Z,4.37
2019-05-25T11:42:13.516Z,3.70
2019-05-25T11:44:40.785Z,3.67
2019-05-25T11:47:08.157Z,4.50
2019-05-25T11:49:35.430Z,5.07
2019-05-25T11:52:02.708Z,4.77
2019-05-25T11:54:30.145Z,3.87
2019-05-25T11:56:57.409Z,3.43
2019-05-25T11:59:24.679Z,4.00
2019-05-25T12:01:52.045Z,5.73
2019-05-25T12:04:19.314Z,4.53
2019-05-25T12:06:46.582Z,5.70
2019-05-25T12:09:13.889Z,3.90
2019-05-25T12:11:41.165Z,3.00
2019-05-25T12:14:08.500Z,4.70
2019-05-25T12:16:35.810Z,3.77
2019-05-25T12:19:03.069Z,3.73
2019-05-25T12:21:30.368Z,3.30
2019-05-25T12:23:57.788Z,4.07
2019-05-25T12:26:25.065Z,4.80
2019-05-25T12:28:52.329Z,3.40
2019-05-25T12:31:19.653Z,3.80
2019-05-25T12:33:47.010Z,3.57
2019-05-25T12:36:14.277Z,4.23
2019-05-25T12:38:41.573Z,6.53
2019-05-25T12:41:08.854Z,4.17
2019-05-25T12:43:36.172Z,4.27
2019-05-25T12:46:03.680Z,4.90
2019-05-25T12:48:30.946Z,3.90
2019-05-25T12:50:58.218Z,3.43
2019-05-25T12:53:25.525Z,3.80
2019-05-25T12:55:52.800Z,8.00
2019-05-25T12:58:23.203Z,4.00
2019-05-25T13:00:56.105Z,4.70
2019-05-25T13:03:18.155Z,3.77
2019-05-25T13:05:45.422Z,5.20
2019-05-25T13:08:12.795Z,3.90
2019-05-25T13:10:40.064Z,6.20
2019-05-25T13:13:07.402Z,4.03
2019-05-25T13:15:34.773Z,3.90
2019-05-25T13:18:02.036Z,4.10
2019-05-25T13:20:29.304Z,4.03
2019-05-25T13:22:56.677Z,4.00
2019-05-25T13:25:23.945Z,3.93
2019-05-25T13:27:51.279Z,3.90
2019-05-25T13:30:18.699Z,3.63
2019-05-25T13:32:45.970Z,3.90
2019-05-25T13:35:13.232Z,4.30
2019-05-25T13:37:40.534Z,3.57
2019-05-25T13:40:08.682Z,4.60
2019-05-25T13:42:35.947Z,4.13
2019-05-25T13:45:04.385Z,3.83
2019-05-25T13:47:31.654Z,4.43
2019-05-25T13:49:58.924Z,4.30
2019-05-25T13:52:26.223Z,3.80
2019-05-25T13:54:53.490Z,3.90
2019-05-25T13:57:20.763Z,4.67
2019-05-25T13:59:48.145Z,4.30
2019-05-25T14:02:15.425Z,4.93
2019-05-25T14:04:42.692Z,4.60
2019-05-25T14:07:10.053Z,4.73
2019-05-25T14:09:37.323Z,4.10
2019-05-25T14:12:04.589Z,4.10
2019-05-25T14:14:31.961Z,4.20
2019-05-25T14:16:59.229Z,3.77
2019-05-25T14:19:26.496Z,3.70
2019-05-25T14:21:53.787Z,4.60
2019-05-25T14:24:21.062Z,8.93
2019-05-25T14:26:48.405Z,4.40
2019-05-25T14:29:15.695Z,5.63
2019-05-25T14:31:45.890Z,5.03
2019-05-25T14:34:12.060Z,3.60
2019-05-25T14:36:39.361Z,4.40
2019-05-25T14:39:07.801Z,4.30
2019-05-25T14:41:35.074Z,5.37
2019-05-25T14:44:02.504Z,4.43
2019-05-25T14:46:29.772Z,3.67
2019-05-25T14:48:57.039Z,4.10
2019-05-25T14:51:24.409Z,4.10
2019-05-25T14:53:51.673Z,4.30
2019-05-25T14:56:18.941Z,4.00
2019-05-25T14:58:46.538Z,4.83
2019-05-25T15:01:13.837Z,4.37
2019-05-25T15:03:41.110Z,4.43
2019-05-25T15:06:08.401Z,4.03
2019-05-25T15:08:35.737Z,4.10
2019-05-25T15:11:03.013Z,4.20
2019-05-25T15:13:30.384Z,4.50
2019-05-25T15:15:57.650Z,3.97
2019-05-25T15:18:24.916Z,4.50
2019-05-25T15:20:52.302Z,3.70
2019-05-25T15:23:19.574Z,3.30
2019-05-25T15:25:46.842Z,3.13
2019-05-25T15:28:14.201Z,3.30
2019-05-25T15:30:41.475Z,3.90
2019-05-25T15:33:08.750Z,3.73
2019-05-25T15:35:36.048Z,3.30
2019-05-25T15:38:03.322Z,3.47
2019-05-25T15:40:30.674Z,3.20
2019-05-25T15:42:57.953Z,2.60
2019-05-25T15:45:25.222Z,2.93
2019-05-25T15:47:52.488Z,4.30
2019-05-25T15:50:20.025Z,3.23
2019-05-25T15:52:47.448Z,3.23
2019-05-25T15:55:14.772Z,3.47
2019-05-25T15:57:42.075Z,3.97
2019-05-25T16:00:10.349Z,3.20
2019-05-25T16:02:37.679Z,4.00
2019-05-25T16:05:05.397Z,3.93
2019-05-25T16:07:34.206Z,3.77
2019-05-25T16:10:01.484Z,6.50
2019-05-25T16:12:28.790Z,4.07
2019-05-25T16:14:56.049Z,3.50
2019-05-25T16:17:26.151Z,4.33
2019-05-25T16:19:52.334Z,3.60
2019-05-25T16:22:19.600Z,4.20
2019-05-25T16:24:46.868Z,4.90
2019-05-25T16:27:14.169Z,3.93
2019-05-25T16:29:41.554Z,5.00
2019-05-25T16:32:08.821Z,5.60
2019-05-25T16:34:36.129Z,4.50
2019-05-25T16:37:03.518Z,3.07
2019-05-25T16:39:30.929Z,3.50
2019-05-25T16:41:58.225Z,5.03
2019-05-25T16:44:26.303Z,3.93
2019-05-25T16:46:53.584Z,3.67
2019-05-25T16:49:20.952Z,4.80
2019-05-25T16:51:48.221Z,3.93
2019-05-25T16:54:15.491Z,3.60
2019-05-25T16:56:42.866Z,3.67
2019-05-25T16:59:10.133Z,3.63
2019-05-25T17:01:47.664Z,3.70
2019-05-25T17:04:06.432Z,2.93
2019-05-25T17:06:33.698Z,4.50
2019-05-25T17:09:00.978Z,4.17
2019-05-25T17:11:28.457Z,3.57
2019-05-25T17:13:55.792Z,3.87
2019-05-25T17:16:23.070Z,4.07
2019-05-25T17:18:50.372Z,4.93
2019-05-25T17:21:17.640Z,4.00
2019-05-25T17:23:44.913Z,4.17
2019-05-25T17:26:12.226Z,4.20
2019-05-25T17:28:39.562Z,6.93
2019-05-25T17:31:06.897Z,6.40
2019-05-25T17:33:45.226Z,4.27
2019-05-25T17:36:03.274Z,3.73
2019-05-25T17:38:30.536Z,3.70
2019-05-25T17:40:57.880Z,4.23
2019-05-25T17:43:25.161Z,4.40
2019-05-25T17:45:52.425Z,4.10
2019-05-25T17:48:19.864Z,3.97
2019-05-25T17:50:47.140Z,4.30
2019-05-25T17:53:14.419Z,4.50
2019-05-25T17:55:41.780Z,5.00
2019-05-25T17:58:09.117Z,6.20
2019-05-25T18:00:37.754Z,5.27
2019-05-25T18:03:05.362Z,6.80
2019-05-25T18:05:32.892Z,5.53
2019-05-25T18:08:00.160Z,6.80
2019-05-25T18:10:27.461Z,5.50
2019-05-25T18:12:54.898Z,4.83
2019-05-25T18:15:22.317Z,9.03
2019-05-25T18:17:49.626Z,11.03
2019-05-25T18:20:16.933Z,4.40
2019-05-25T18:22:44.297Z,4.53
2019-05-25T18:25:11.831Z,11.80
2019-05-25T18:27:39.149Z,13.73
2019-05-25T18:30:07.466Z,9.60
2019-05-25T18:32:34.777Z,5.60
2019-05-25T18:35:02.125Z,5.27
2019-05-25T18:37:29.441Z,4.60
2019-05-25T18:39:56.740Z,6.27
2019-05-25T18:42:24.283Z,5.73
2019-05-25T18:44:51.547Z,6.87
2019-05-25T18:47:18.856Z,5.60
2019-05-25T18:49:47.274Z,4.60
2019-05-25T18:52:14.621Z,5.13
2019-05-25T18:54:42.025Z,6.80
2019-05-25T18:57:09.703Z,13.37
2019-05-25T18:59:37.309Z,4.53
2019-05-25T19:02:04.690Z,5.87
2019-05-25T19:04:44.930Z,4.70
2019-05-25T19:07:00.948Z,6.93
2019-05-25T19:09:28.319Z,5.20
2019-05-25T19:11:55.673Z,5.37
2019-05-25T19:14:25.015Z,5.23
2019-05-25T19:16:52.382Z,4.77
2019-05-25T19:19:19.710Z,4.50
2019-05-25T19:21:47.017Z,5.50
2019-05-25T19:24:14.393Z,5.27
2019-05-25T19:26:41.725Z,4.90
2019-05-25T19:29:08.991Z,9.50
2019-05-25T19:31:36.386Z,4.87
2019-05-25T19:34:03.801Z,4.90
2019-05-25T19:36:31.068Z,6.13
2019-05-25T19:38:58.445Z,6.17
2019-05-25T19:41:25.713Z,5.50
2019-05-25T19:43:52.980Z,6.50
2019-05-25T19:46:20.295Z,5.47
2019-05-25T19:48:47.624Z,5.57
2019-05-25T19:51:14.895Z,5.93
2019-05-25T19:53:42.261Z,6.70
2019-05-25T19:56:09.526Z,5.97
2019-05-25T19:58:36.792Z,5.90
2019-05-25T20:01:04.450Z,5.23
2019-05-25T20:03:31.713Z,5.87
2019-05-25T20:05:59.045Z,5.67
2019-05-25T20:08:26.410Z,5.93
2019-05-25T20:10:55.715Z,6.23
2019-05-25T20:13:22.683Z,5.53
2019-05-25T20:15:50.055Z,6.07
2019-05-25T20:18:17.322Z,6.20
2019-05-25T20:20:46.678Z,5.50
2019-05-25T20:23:13.982Z,6.37
2019-05-25T20:25:41.319Z,5.40
2019-05-25T20:28:08.685Z,6.30
2019-05-25T20:30:36.100Z,8.10
2019-05-25T20:35:33.625Z,6.63
2019-05-25T20:38:02.222Z,6.37
2019-05-25T20:40:29.500Z,6.03
2019-05-25T20:42:56.855Z,5.93
2019-05-25T20:45:24.312Z,5.50
2019-05-25T20:47:51.671Z,6.97
2019-05-25T20:50:20.082Z,7.40
2019-05-25T20:52:47.370Z,4.80
2019-05-25T20:55:14.700Z,5.57
2019-05-25T20:57:41.973Z,6.20
2019-05-25T21:00:09.421Z,5.80
2019-05-25T21:02:36.712Z,7.47
2019-05-25T21:05:07.085Z,6.67
2019-05-25T21:07:34.575Z,7.37
2019-05-25T21:10:02.651Z,6.57
2019-05-25T21:12:30.303Z,6.90
2019-05-25T21:14:57.656Z,7.03
2019-05-25T21:17:24.944Z,7.83
2019-05-25T21:19:52.405Z,7.13
2019-05-25T21:22:19.744Z,7.77
2019-05-25T21:24:47.012Z,7.97
2019-05-25T21:27:14.319Z,10.00
2019-05-25T21:29:41.594Z,9.63
2019-05-25T21:32:08.936Z,9.70
2019-05-25T21:34:36.322Z,8.07
2019-05-25T21:37:03.753Z,7.33
2019-05-25T21:39:32.137Z,7.03
2019-05-25T21:41:59.566Z,7.17
2019-05-25T21:44:26.873Z,6.67
2019-05-25T21:46:54.434Z,6.87
2019-05-25T21:49:21.927Z,6.33
2019-05-25T21:51:49.317Z,6.57
2019-05-25T21:54:16.718Z,7.40
2019-05-25T21:56:44.138Z,8.83
2019-05-25T21:59:11.585Z,7.77
2019-05-25T22:01:38.924Z,7.93
2019-05-25T22:04:06.261Z,7.50
2019-05-25T22:06:33.561Z,7.83
2019-05-25T22:09:00.863Z,9.20
2019-05-25T22:11:28.351Z,8.20
2019-05-25T22:13:55.712Z,8.13
2019-05-25T22:16:23.065Z,9.50
2019-05-25T22:18:50.424Z,8.00
2019-05-25T22:21:17.685Z,8.97
2019-05-25T22:23:45.065Z,9.27
2019-05-25T22:26:12.417Z,9.23
2019-05-25T22:28:44.854Z,8.60
2019-05-25T22:31:08.782Z,11.60
2019-05-25T22:33:36.059Z,9.20
2019-05-25T22:36:03.526Z,8.23
2019-05-25T22:38:30.788Z,8.97
2019-05-25T22:40:58.153Z,9.53
2019-05-25T22:43:25.525Z,8.50
2019-05-25T22:45:52.793Z,12.13
2019-05-25T22:48:20.061Z,8.67
2019-05-25T22:50:47.332Z,9.47
2019-05-25T22:53:14.600Z,9.03
2019-05-25T22:55:41.869Z,9.03
2019-05-25T22:58:09.248Z,8.97
2019-05-25T23:00:36.517Z,8.43
2019-05-25T23:03:04.877Z,8.87
2019-05-25T23:05:32.157Z,10.60
2019-05-25T23:07:59.434Z,9.13
2019-05-25T23:10:26.818Z,9.60
2019-05-25T23:12:54.086Z,9.67
2019-05-25T23:15:21.423Z,9.10
2019-05-25T23:17:48.793Z,8.80
2019-05-25T23:20:16.137Z,9.10
2019-05-25T23:22:43.405Z,9.53
2019-05-25T23:25:10.896Z,9.30
2019-05-25T23:27:38.228Z,9.30
2019-05-25T23:30:05.971Z,9.70
2019-05-25T23:32:33.336Z,8.00
2019-05-25T23:35:00.601Z,10.00
2019-05-25T23:37:27.888Z,8.40
2019-05-25T23:39:55.173Z,8.57
2019-05-25T23:42:22.444Z,8.00
2019-05-25T23:44:49.744Z,6.87
2019-05-25T23:47:17.009Z,7.77
2019-05-25T23:49:44.284Z,7.93
2019-05-25T23:52:11.594Z,7.53
2019-05-25T23:54:38.868Z,7.40
2019-05-25T23:57:06.273Z,7.73
2019-05-25T23:59:33.550Z,7.90
